createdAt,value
2022-10-17T00:01:11.338Z,6.40
2022-10-17T00:03:40.195Z,8.10
2022-10-17T00:06:12.688Z,6.40
2022-10-17T00:08:42.133Z,8.90
2022-10-17T00:11:16.692Z,8.40
2022-10-17T00:13:47.099Z,5.00
2022-10-17T00:16:16.693Z,5.00
2022-10-17T00:18:45.002Z,9.80
2022-10-17T00:21:17.887Z,5.60
2022-10-17T00:23:47.223Z,5.60
2022-10-17T00:26:16.197Z,5.40
2022-10-17T00:28:53.564Z,8.00
2022-10-17T00:31:23.385Z,5.80
2022-10-17T00:33:52.405Z,5.80
2022-10-17T00:36:23.612Z,9.30
2022-10-17T00:38:57.757Z,9.20
2022-10-17T00:41:31.988Z,4.50
2022-10-17T00:44:04.525Z,5.10
2022-10-17T00:46:39.144Z,5.20
2022-10-17T00:49:12.776Z,5.50
2022-10-17T00:51:43.261Z,10.00
2022-10-17T00:54:14.369Z,5.30
2022-10-17T00:56:43.734Z,5.20
2022-10-17T00:59:14.003Z,5.90
2022-10-17T01:01:47.126Z,4.50
2022-10-17T01:04:15.970Z,4.80
2022-10-17T01:06:44.074Z,4.70
2022-10-17T01:09:12.281Z,4.50
2022-10-17T01:12:13.277Z,5.70
2022-10-17T01:15:00.348Z,4.30
2022-10-17T01:18:03.116Z,4.70
2022-10-17T01:21:09.910Z,4.40
2022-10-17T01:23:49.094Z,5.00
2022-10-17T01:26:23.276Z,5.00
2022-10-17T01:29:16.600Z,4.20
2022-10-17T01:31:47.919Z,5.20
2022-10-17T01:34:41.445Z,5.00
2022-10-17T01:37:14.881Z,6.20
2022-10-17T01:39:58.325Z,12.80
2022-10-17T01:42:59.029Z,6.80
2022-10-17T01:45:35.245Z,6.50
2022-10-17T01:48:10.115Z,8.40
2022-10-17T01:50:44.738Z,4.90
2022-10-17T01:53:28.521Z,3.40
2022-10-17T01:56:02.288Z,4.00
2022-10-17T01:58:42.359Z,4.80
2022-10-17T02:01:12.756Z,5.00
2022-10-17T02:03:43.862Z,5.10
2022-10-17T02:06:12.322Z,4.30
2022-10-17T02:08:43.845Z,5.40
2022-10-17T02:11:21.487Z,4.10
2022-10-17T02:14:14.889Z,4.40
2022-10-17T02:16:58.006Z,4.90
2022-10-17T02:19:44.500Z,4.50
2022-10-17T02:22:12.706Z,4.30
2022-10-17T02:24:49.782Z,4.20
2022-10-17T02:27:20.893Z,4.90
2022-10-17T02:29:54.475Z,5.00
2022-10-17T02:32:35.242Z,4.50
2022-10-17T02:35:07.614Z,4.40
2022-10-17T02:37:36.692Z,7.70
2022-10-17T02:40:07.083Z,5.30
2022-10-17T02:42:39.544Z,4.50
2022-10-17T02:45:09.125Z,5.10
2022-10-17T02:48:00.174Z,5.10
2022-10-17T02:50:38.251Z,5.50
2022-10-17T02:53:11.837Z,4.60
2022-10-17T02:55:55.375Z,5.30
2022-10-17T02:58:32.163Z,6.50
2022-10-17T03:01:02.219Z,4.50
2022-10-17T03:03:32.521Z,5.40
2022-10-17T03:06:03.216Z,13.50
2022-10-17T03:08:31.389Z,5.10
2022-10-17T03:10:59.545Z,5.40
2022-10-17T03:13:29.974Z,5.10
2022-10-17T03:15:58.361Z,5.80
2022-10-17T03:18:26.358Z,8.10
2022-10-17T03:20:57.634Z,4.60
2022-10-17T03:23:25.825Z,4.70
2022-10-17T03:25:54.078Z,4.20
2022-10-17T03:28:22.358Z,4.90
2022-10-17T03:30:50.518Z,4.10
2022-10-17T03:33:18.575Z,6.10
2022-10-17T03:35:46.746Z,5.50
2022-10-17T03:38:15.255Z,6.40
2022-10-17T03:40:43.340Z,4.20
2022-10-17T03:43:12.141Z,4.10
2022-10-17T03:45:40.835Z,4.30
2022-10-17T03:48:08.993Z,4.60
2022-10-17T03:50:37.020Z,5.50
2022-10-17T03:53:05.149Z,7.10
2022-10-17T03:55:33.539Z,4.20
2022-10-17T03:58:01.504Z,6.70
2022-10-17T04:00:29.979Z,4.10
2022-10-17T04:02:58.832Z,7.70
2022-10-17T04:05:27.284Z,5.40
2022-10-17T04:07:55.328Z,5.70
2022-10-17T04:10:29.728Z,5.40
2022-10-17T04:12:58.088Z,4.30
2022-10-17T04:15:26.388Z,4.00
2022-10-17T04:17:55.061Z,4.90
2022-10-17T04:20:29.696Z,4.30
2022-10-17T04:23:01.962Z,3.70
2022-10-17T04:25:33.375Z,4.90
2022-10-17T04:28:04.210Z,7.40
2022-10-17T04:30:33.389Z,7.30
2022-10-17T04:33:01.572Z,4.80
2022-10-17T04:35:31.405Z,4.70
2022-10-17T04:38:03.377Z,4.60
2022-10-17T04:40:31.566Z,4.20
2022-10-17T04:43:00.243Z,8.50
2022-10-17T04:45:35.490Z,6.30
2022-10-17T04:48:07.633Z,5.60
2022-10-17T04:50:35.863Z,7.20
2022-10-17T04:53:49.221Z,55.00
2022-10-17T04:56:22.151Z,15.30
2022-10-17T04:58:51.440Z,7.00
2022-10-17T05:01:23.247Z,4.70
2022-10-17T05:04:09.667Z,7.20
2022-10-17T05:06:50.342Z,8.80
2022-10-17T05:09:46.317Z,37.80
2022-10-17T05:12:22.557Z,57.30
2022-10-17T05:14:52.671Z,23.70
2022-10-17T05:17:23.945Z,8.10
2022-10-17T05:19:59.860Z,7.80
2022-10-17T05:22:29.821Z,8.00
2022-10-17T05:25:01.811Z,30.70
2022-10-17T05:27:36.610Z,12.40
2022-10-17T05:30:12.235Z,15.20
2022-10-17T05:32:54.106Z,33.10
2022-10-17T05:35:33.263Z,23.20
2022-10-17T10:22:30.242Z,3.10
2022-10-17T10:25:19.412Z,2.90
2022-10-17T10:27:48.142Z,2.60
2022-10-17T10:30:23.139Z,3.40
2022-10-17T10:32:51.708Z,2.60
2022-10-17T10:35:32.213Z,3.10
2022-10-17T10:38:10.623Z,3.00
2022-10-17T10:40:50.283Z,2.80
2022-10-17T10:43:47.252Z,2.80
2022-10-17T10:46:26.457Z,2.40
2022-10-17T10:49:01.525Z,2.00
2022-10-17T10:51:50.931Z,1.80
2022-10-17T10:58:49.047Z,2.10
2022-10-17T11:01:59.420Z,2.30
2022-10-17T11:04:29.471Z,2.10
2022-10-17T11:07:25.594Z,2.10
2022-10-17T11:10:23.149Z,2.80
2022-10-17T11:13:14.940Z,2.20
2022-10-17T11:15:57.280Z,1.90
2022-10-17T11:18:44.378Z,3.20
2022-10-17T11:21:36.854Z,3.40
2022-10-17T11:24:09.339Z,3.00
2022-10-17T11:26:49.162Z,2.30
2022-10-17T11:29:17.837Z,2.60
2022-10-17T11:31:52.156Z,2.30
2022-10-17T11:34:25.396Z,2.70
2022-10-17T11:36:59.571Z,2.80
2022-10-17T11:40:03.776Z,2.70
2022-10-17T11:42:41.095Z,2.50
2022-10-17T11:45:15.405Z,3.00
2022-10-17T11:47:54.963Z,2.60
2022-10-17T11:53:22.202Z,2.70
2022-10-17T11:55:52.050Z,3.20
2022-10-17T11:58:35.949Z,3.10
2022-10-17T12:01:12.320Z,3.00
2022-10-17T12:03:42.271Z,2.60
2022-10-17T12:06:29.516Z,2.80
2022-10-17T12:09:18.959Z,2.80
2022-10-17T12:11:53.580Z,2.60
2022-10-17T12:14:41.143Z,2.90
2022-10-17T12:17:38.513Z,3.00
2022-10-17T12:20:21.414Z,2.80
2022-10-17T12:22:50.165Z,3.40
2022-10-17T12:25:24.138Z,2.90
2022-10-17T12:28:06.423Z,2.90
2022-10-17T12:30:34.118Z,2.80
2022-10-17T12:33:11.047Z,2.90
2022-10-17T12:35:38.840Z,2.80
2022-10-17T12:38:25.987Z,2.80
2022-10-17T12:41:01.294Z,3.30
2022-10-17T12:45:58.726Z,3.00
2022-10-17T12:48:38.000Z,3.00
2022-10-17T12:51:34.139Z,2.90
2022-10-17T12:56:49.232Z,3.50
2022-10-17T12:59:25.945Z,4.70
2022-10-17T13:01:59.087Z,4.60
2022-10-17T13:04:28.556Z,4.10
2022-10-17T13:06:58.657Z,4.30
2022-10-17T13:09:30.417Z,3.30
2022-10-17T13:12:03.439Z,2.90
2022-10-17T13:14:32.777Z,2.90
2022-10-17T13:17:05.639Z,3.10
2022-10-17T13:19:45.249Z,3.90
2022-10-17T13:22:27.667Z,4.10
2022-10-17T13:25:27.368Z,4.80
2022-10-17T13:28:13.351Z,4.80
2022-10-17T13:30:46.238Z,3.70
2022-10-17T13:33:31.158Z,3.10
2022-10-17T13:36:00.788Z,3.50
2022-10-17T13:38:32.260Z,3.10
2022-10-17T13:41:30.164Z,2.80
2022-10-17T13:43:52.441Z,2.80
2022-10-17T13:46:39.113Z,2.90
2022-10-17T13:49:26.197Z,3.00
2022-10-17T13:51:57.399Z,3.20
2022-10-17T13:54:30.386Z,2.80
2022-10-17T13:57:00.736Z,3.00
2022-10-17T13:59:39.790Z,2.90
2022-10-17T14:02:15.075Z,2.60
2022-10-17T14:05:11.590Z,3.00
2022-10-17T14:08:09.876Z,2.90
2022-10-17T14:10:39.096Z,3.30
2022-10-17T14:13:18.586Z,3.70
2022-10-17T14:15:46.247Z,3.00
2022-10-17T14:18:21.347Z,3.00
2022-10-17T14:23:43.702Z,3.30
2022-10-17T14:26:15.361Z,3.40
2022-10-17T14:28:45.697Z,3.90
2022-10-17T14:31:15.192Z,4.20
2022-10-17T14:33:50.590Z,3.20
2022-10-17T14:36:21.513Z,3.40
2022-10-17T14:38:51.747Z,3.10
2022-10-17T14:44:23.672Z,3.30
2022-10-17T14:47:30.735Z,3.20
2022-10-17T14:50:12.052Z,2.80
2022-10-17T14:52:40.552Z,3.10
2022-10-17T14:55:23.144Z,4.80
2022-10-17T14:57:50.226Z,37.70
2022-10-17T15:00:18.891Z,66.80
2022-10-17T15:02:46.740Z,84.10
2022-10-17T15:05:14.989Z,91.00
2022-10-17T15:07:42.171Z,113.70
2022-10-17T15:10:36.792Z,109.40
2022-10-17T15:13:26.554Z,82.20
2022-10-17T15:15:51.557Z,38.50
2022-10-17T15:18:18.917Z,20.90
2022-10-17T15:20:45.586Z,15.70
2022-10-17T15:23:12.269Z,24.00
2022-10-17T15:25:39.401Z,14.40
2022-10-17T15:28:06.051Z,12.40
2022-10-17T15:30:35.977Z,15.60
2022-10-17T15:33:03.177Z,8.60
2022-10-17T15:35:30.696Z,38.80
2022-10-17T15:37:57.429Z,49.00
2022-10-17T15:40:30.049Z,15.90
2022-10-17T15:42:56.870Z,12.50
2022-10-17T15:45:24.196Z,22.50
2022-10-17T15:48:02.234Z,68.20
2022-10-17T15:50:29.970Z,27.00
2022-10-17T15:52:56.765Z,27.50
2022-10-17T15:55:24.218Z,31.00
2022-10-17T15:57:51.040Z,28.50
2022-10-17T16:00:23.367Z,28.70
2022-10-17T16:02:50.648Z,92.40
2022-10-17T16:05:25.073Z,106.00
2022-10-17T16:07:53.402Z,75.90
2022-10-17T16:10:21.675Z,41.60
2022-10-17T16:12:49.481Z,23.60
2022-10-17T16:15:24.500Z,36.00
2022-10-17T16:17:53.198Z,26.30
2022-10-17T16:20:21.234Z,44.60
2022-10-17T16:22:50.122Z,51.60
2022-10-17T16:25:24.671Z,60.40
2022-10-17T16:27:54.341Z,64.10
2022-10-17T16:32:56.369Z,101.40
2022-10-17T16:35:33.078Z,82.30
2022-10-17T16:38:05.325Z,76.80
2022-10-17T16:40:32.795Z,70.50
2022-10-17T16:42:59.595Z,77.90
2022-10-17T16:45:26.275Z,77.00
2022-10-17T16:47:53.007Z,77.20
2022-10-17T16:50:20.040Z,83.70
2022-10-17T16:52:46.994Z,89.90
2022-10-17T16:55:13.984Z,86.20
2022-10-17T17:00:12.252Z,75.90
2022-10-17T17:02:39.080Z,47.00
2022-10-17T17:05:06.789Z,48.20
2022-10-17T17:07:34.066Z,51.60
2022-10-17T17:10:00.749Z,49.50
2022-10-17T17:12:27.439Z,46.10
2022-10-17T17:14:54.169Z,39.80
2022-10-17T17:17:44.578Z,52.20
2022-10-17T17:20:07.779Z,46.90
2022-10-17T17:22:34.633Z,38.00
2022-10-17T17:25:01.359Z,34.00
2022-10-17T17:27:28.474Z,29.90
2022-10-17T17:29:55.460Z,28.20
2022-10-17T17:32:22.314Z,26.60
2022-10-17T17:34:49.127Z,22.80
2022-10-17T17:37:15.782Z,12.40
2022-10-17T17:39:42.364Z,11.70
2022-10-17T17:42:09.213Z,27.60
2022-10-17T17:44:36.040Z,14.60
2022-10-17T17:47:02.766Z,55.20
2022-10-17T17:49:29.713Z,57.00
2022-10-17T17:51:56.518Z,77.90
2022-10-17T17:54:23.279Z,122.60
2022-10-17T17:56:50.071Z,43.30
2022-10-17T17:59:16.814Z,28.30
2022-10-17T18:01:43.707Z,65.10
2022-10-17T18:04:11.548Z,29.30
2022-10-17T18:06:39.312Z,22.30
2022-10-17T18:09:07.097Z,25.30
2022-10-17T18:11:34.776Z,26.20
2022-10-17T18:14:04.656Z,25.20
2022-10-17T18:16:33.667Z,23.60
2022-10-17T18:19:06.613Z,22.30
2022-10-17T18:21:35.507Z,21.90
2022-10-17T18:24:04.264Z,24.20
2022-10-17T18:26:31.138Z,25.30
2022-10-17T18:28:57.842Z,27.70
2022-10-17T18:31:27.983Z,26.00
2022-10-17T18:33:57.260Z,20.70
2022-10-17T18:36:25.649Z,26.50
2022-10-17T18:38:53.543Z,45.70
2022-10-17T18:41:23.171Z,36.30
2022-10-17T18:43:51.368Z,40.70
2022-10-17T18:46:21.135Z,33.50
2022-10-17T18:48:49.413Z,46.80
2022-10-17T18:51:19.809Z,93.40
2022-10-17T18:53:49.403Z,70.20
2022-10-17T18:56:17.664Z,75.40
2022-10-17T18:58:45.359Z,48.80
2022-10-17T19:01:15.703Z,26.50
2022-10-17T19:03:44.343Z,24.30
2022-10-17T19:06:13.912Z,26.20
2022-10-17T19:08:41.917Z,31.30
2022-10-17T19:11:12.658Z,36.50
2022-10-17T19:13:40.425Z,30.70
2022-10-17T19:16:18.974Z,34.70
2022-10-17T19:18:55.863Z,27.80
2022-10-17T19:21:23.075Z,26.40
2022-10-17T19:23:52.436Z,23.70
2022-10-17T19:26:20.526Z,23.10
2022-10-17T19:28:47.808Z,22.80
2022-10-17T19:31:17.945Z,21.40
2022-10-17T19:33:45.491Z,20.10
2022-10-17T19:36:13.140Z,21.60
2022-10-17T19:38:40.044Z,19.90
2022-10-17T19:41:08.886Z,22.40
2022-10-17T19:43:40.159Z,23.80
2022-10-17T19:46:11.847Z,23.70
2022-10-17T19:48:38.759Z,22.40
2022-10-17T19:51:12.275Z,28.10
2022-10-17T19:53:39.410Z,14.90
2022-10-17T19:56:06.821Z,27.70
2022-10-17T19:58:43.073Z,27.30
2022-10-17T20:01:12.106Z,23.60
2022-10-17T20:03:38.934Z,20.60
2022-10-17T20:06:06.279Z,24.90
2022-10-17T20:08:33.329Z,24.50
2022-10-17T20:11:08.896Z,26.50
2022-10-17T20:13:36.425Z,23.00
2022-10-17T20:16:04.814Z,24.80
2022-10-17T20:18:32.069Z,25.40
2022-10-17T20:21:05.403Z,24.70
2022-10-17T20:23:32.453Z,25.10
2022-10-17T20:26:25.526Z,26.70
2022-10-17T20:28:53.093Z,33.30
2022-10-17T20:31:20.374Z,27.40
2022-10-17T20:33:47.157Z,14.00
2022-10-17T20:36:14.244Z,24.80
2022-10-17T20:38:41.116Z,38.40
2022-10-17T20:41:09.722Z,17.40
2022-10-17T20:43:37.469Z,27.70
2022-10-17T20:46:15.786Z,36.90
2022-10-17T20:48:54.399Z,38.60
2022-10-17T20:51:21.398Z,34.60
2022-10-17T20:53:48.771Z,17.50
2022-10-17T20:56:25.308Z,28.70
2022-10-17T20:58:54.713Z,28.50
2022-10-17T21:01:22.348Z,28.40
2022-10-17T21:03:49.483Z,28.20
2022-10-17T21:06:17.386Z,25.00
2022-10-17T21:08:45.486Z,23.90
2022-10-17T21:11:16.236Z,30.00
2022-10-17T21:13:44.010Z,36.50
2022-10-17T21:16:13.671Z,81.40
2022-10-17T21:18:41.035Z,14.10
2022-10-17T21:21:10.872Z,12.40
2022-10-17T21:23:39.145Z,18.90
2022-10-17T21:26:09.954Z,90.50
2022-10-17T21:28:37.079Z,33.60
2022-10-17T21:31:20.185Z,36.90
2022-10-17T21:33:49.875Z,29.30
2022-10-17T21:36:17.943Z,20.00
2022-10-17T21:38:46.495Z,29.60
2022-10-17T21:41:15.790Z,28.90
2022-10-17T21:43:42.845Z,15.60
2022-10-17T21:46:12.187Z,25.10
2022-10-17T21:48:39.091Z,23.70
2022-10-17T21:51:09.529Z,29.20
2022-10-17T21:53:37.145Z,24.30
2022-10-17T21:56:06.982Z,22.90
2022-10-17T21:58:33.987Z,12.50
2022-10-17T22:01:14.719Z,10.50
2022-10-17T22:03:46.814Z,16.30
2022-10-17T22:09:05.648Z,18.10
2022-10-17T22:11:34.972Z,13.20
2022-10-17T22:14:05.427Z,9.50
2022-10-17T22:16:33.034Z,13.20
2022-10-17T22:19:04.929Z,6.70
2022-10-17T22:21:35.502Z,7.30
2022-10-17T22:24:05.972Z,12.60
2022-10-17T22:26:34.494Z,7.00
2022-10-17T22:29:01.705Z,6.10
2022-10-17T22:31:28.504Z,9.20
2022-10-17T22:33:55.685Z,6.70
2022-10-17T22:36:22.516Z,10.60
2022-10-17T22:38:49.840Z,6.20
2022-10-17T22:41:17.289Z,10.30
2022-10-17T22:43:44.330Z,11.80
2022-10-17T22:46:13.242Z,7.00
2022-10-17T22:48:40.022Z,10.20
2022-10-17T22:51:06.887Z,5.20
2022-10-17T22:53:34.685Z,7.60
2022-10-17T22:56:06.287Z,11.50
2022-10-17T22:58:34.485Z,13.10
2022-10-17T23:01:02.399Z,9.00
2022-10-17T23:03:30.857Z,13.10
2022-10-17T23:05:58.188Z,15.80
2022-10-17T23:08:26.735Z,5.70
2022-10-17T23:10:53.826Z,10.10
2022-10-17T23:13:21.400Z,6.60
2022-10-17T23:15:56.110Z,23.20
2022-10-17T23:18:24.940Z,12.60
2022-10-17T23:20:52.717Z,10.40
2022-10-17T23:23:20.310Z,6.20
2022-10-17T23:25:47.878Z,11.10
2022-10-17T23:28:14.965Z,7.30
2022-10-17T23:30:41.836Z,6.70
2022-10-17T23:33:11.200Z,6.40
2022-10-17T23:35:38.049Z,12.40
2022-10-17T23:38:04.711Z,5.10
2022-10-17T23:40:31.606Z,4.80
2022-10-17T23:42:58.545Z,10.10
2022-10-17T23:45:25.256Z,4.70
2022-10-17T23:47:52.140Z,7.80
2022-10-17T23:50:18.769Z,5.30
2022-10-17T23:52:45.501Z,4.60
2022-10-17T23:55:12.370Z,5.60
2022-10-17T23:57:39.010Z,8.30
